Time;durP1;ratioP1;P1;durP2;ratioP2;P2;SDS_P1;SDS_P2;PMS_P1;PMS_P2;Temp;Humidity;BMP_temperature;BMP_pressure;BME280_temperature;BME280_humidity;BME280_pressure;Samples;Min_cycle;Max_cycle;Signal;HPM_P1;HPM_P2
2023/03/13 00:04:50;;;;;;;0.30;0.30;;;;;;;;;;7427444;19;20141;-88
2023/03/13 00:07:16;;;;;;;0.60;0.60;;;;;;;;;;7419321;19;20196;-89
2023/03/13 00:09:43;;;;;;;0.30;0.30;;;;;;;;;;7408337;19;20188;-87
2023/03/13 00:12:10;;;;;;;0.20;0.20;;;;;;;;;;7402338;19;20192;-87
2023/03/13 00:14:36;;;;;;;0.30;0.30;;;;;;;;;;7400741;19;20192;-87
2023/03/13 00:17:03;;;;;;;0.20;0.20;;;;;;;;;;7400744;19;20196;-87
2023/03/13 00:19:30;;;;;;;0.30;0.30;;;;;;;;;;7396572;19;20226;-87
2023/03/13 00:21:56;;;;;;;0.47;0.47;;;;;;;;;;7401063;19;20189;-87
2023/03/13 00:24:23;;;;;;;0.37;0.37;;;;;;;;;;7399162;19;20196;-86
2023/03/13 00:26:49;;;;;;;0.30;0.30;;;;;;;;;;7398646;19;20208;-87
2023/03/13 00:29:16;;;;;;;0.40;0.40;;;;;;;;;;7399868;19;20192;-87
2023/03/13 00:31:43;;;;;;;0.23;0.23;;;;;;;;;;7401932;19;20195;-87
2023/03/13 00:34:09;;;;;;;0.20;0.20;;;;;;;;;;7399560;19;20204;-87
2023/03/13 00:36:36;;;;;;;1.43;1.37;;;;;;;;;;7402293;19;20196;-88
2023/03/13 00:39:04;;;;;;;0.30;0.30;;;;;;;;;;7399484;19;20196;-87
2023/03/13 00:41:32;;;;;;;0.30;0.30;;;;;;;;;;7412006;19;20185;-88
2023/03/13 00:43:59;;;;;;;0.70;0.47;;;;;;;;;;7425273;19;20227;-88
2023/03/13 00:46:27;;;;;;;0.30;0.30;;;;;;;;;;7417916;19;20196;-87
2023/03/13 00:48:54;;;;;;;0.33;0.33;;;;;;;;;;7402751;19;20256;-86
2023/03/13 00:51:22;;;;;;;0.30;0.30;;;;;;;;;;7401067;19;20192;-87
2023/03/13 00:53:49;;;;;;;0.30;0.30;;;;;;;;;;7401612;19;20225;-86
2023/03/13 00:56:17;;;;;;;0.30;0.30;;;;;;;;;;7402548;19;20192;-87
2023/03/13 00:58:45;;;;;;;0.60;0.60;;;;;;;;;;7400857;19;20209;-87
2023/03/13 01:01:15;;;;;;;0.20;0.20;;;;;;;;;;7395700;19;20184;-88
2023/03/13 01:03:44;;;;;;;0.30;0.30;;;;;;;;;;7395700;19;20192;-87
2023/03/13 01:06:13;;;;;;;0.30;0.30;;;;;;;;;;7392294;19;20213;-86
2023/03/13 01:08:40;;;;;;;0.30;0.30;;;;;;;;;;7400733;19;20185;-87
2023/03/13 01:11:09;;;;;;;0.30;0.30;;;;;;;;;;7394472;19;20660;-87
2023/03/13 01:13:36;;;;;;;0.30;0.30;;;;;;;;;;7393556;19;20196;-87
2023/03/13 01:16:03;;;;;;;0.30;0.30;;;;;;;;;;7394959;19;20203;-87
2023/03/13 01:18:35;;;;;;;0.20;0.20;;;;;;;;;;7394865;19;20210;-87
2023/03/13 01:21:03;;;;;;;0.20;0.20;;;;;;;;;;7398451;19;20197;-87
2023/03/13 01:23:29;;;;;;;0.30;0.30;;;;;;;;;;7400131;19;20196;-89
2023/03/13 01:25:56;;;;;;;0.30;0.30;;;;;;;;;;7399020;19;20229;-87
2023/03/13 01:28:24;;;;;;;0.30;0.30;;;;;;;;;;7395252;19;20199;-88
2023/03/13 01:30:51;;;;;;;0.40;0.40;;;;;;;;;;7395889;19;20294;-88
2023/03/13 01:33:20;;;;;;;0.30;0.30;;;;;;;;;;7403198;19;20213;-90
2023/03/13 01:35:47;;;;;;;0.60;0.60;;;;;;;;;;7421377;19;20184;-90
2023/03/13 01:38:13;;;;;;;0.30;0.30;;;;;;;;;;7420025;19;20472;-88
2023/03/13 01:40:47;;;;;;;0.20;0.20;;;;;;;;;;7421219;19;20196;-90
2023/03/13 01:43:26;;;;;;;0.30;0.30;;;;;;;;;;7421774;19;20232;-90
2023/03/13 01:46:13;;;;;;;0.30;0.30;;;;;;;;;;7400384;19;20188;-88
2023/03/13 01:48:57;;;;;;;0.20;0.20;;;;;;;;;;7397809;19;20228;-88
2023/03/13 01:51:47;;;;;;;0.20;0.20;;;;;;;;;;7395490;19;20191;-88
2023/03/13 01:54:16;;;;;;;0.43;0.43;;;;;;;;;;7395509;19;20192;-90
2023/03/13 01:56:59;;;;;;;0.30;0.30;;;;;;;;;;7395171;19;20815;-88
2023/03/13 01:59:41;;;;;;;0.20;0.20;;;;;;;;;;7396277;19;20191;-88
2023/03/13 02:02:08;;;;;;;0.30;0.30;;;;;;;;;;7395447;19;20188;-88
2023/03/13 02:04:37;;;;;;;0.37;0.37;;;;;;;;;;7394597;19;20236;-87
2023/03/13 02:07:09;;;;;;;0.30;0.30;;;;;;;;;;7396604;19;20192;-89
2023/03/13 02:09:36;;;;;;;0.30;0.30;;;;;;;;;;7393529;19;20192;-88
2023/03/13 02:12:06;;;;;;;0.50;0.50;;;;;;;;;;7395839;19;20216;-87
2023/03/13 02:14:36;;;;;;;0.30;0.30;;;;;;;;;;7396153;19;20192;-88
2023/03/13 02:17:03;;;;;;;0.30;0.30;;;;;;;;;;7395295;19;20531;-89
2023/03/13 02:19:36;;;;;;;0.20;0.20;;;;;;;;;;7395987;19;20216;-89
2023/03/13 02:22:45;;;;;;;0.30;0.30;;;;;;;;;;7397487;19;20496;-87
2023/03/13 02:25:24;;;;;;;0.30;0.30;;;;;;;;;;7394171;19;20196;-89
2023/03/13 02:27:53;;;;;;;0.30;0.30;;;;;;;;;;7397333;19;20206;-87
2023/03/13 02:30:20;;;;;;;0.30;0.30;;;;;;;;;;7395906;19;20213;-88
2023/03/13 02:32:47;;;;;;;0.30;0.30;;;;;;;;;;7396875;19;20203;-88
2023/03/13 02:35:17;;;;;;;0.30;0.30;;;;;;;;;;7395228;19;20221;-88
2023/03/13 02:37:46;;;;;;;0.30;0.30;;;;;;;;;;7393659;19;20592;-89
2023/03/13 02:40:15;;;;;;;0.30;0.30;;;;;;;;;;7394566;19;20555;-88
2023/03/13 02:42:43;;;;;;;0.30;0.30;;;;;;;;;;7394480;19;20188;-88
2023/03/13 02:45:13;;;;;;;0.30;0.30;;;;;;;;;;7396243;19;20217;-88
2023/03/13 02:47:40;;;;;;;0.47;0.47;;;;;;;;;;7393364;19;20189;-88
2023/03/13 02:50:08;;;;;;;0.30;0.30;;;;;;;;;;7404789;19;20203;-89
2023/03/13 02:52:50;;;;;;;0.30;0.30;;;;;;;;;;7420512;19;20200;-89
2023/03/13 02:55:24;;;;;;;0.30;0.30;;;;;;;;;;7418212;19;20186;-89
2023/03/13 02:57:50;;;;;;;0.30;0.30;;;;;;;;;;7395965;19;20546;-88
2023/03/13 03:00:18;;;;;;;0.30;0.30;;;;;;;;;;7396782;19;20720;-88
2023/03/13 03:02:44;;;;;;;0.30;0.30;;;;;;;;;;7396431;19;20196;-88
2023/03/13 03:05:12;;;;;;;0.30;0.30;;;;;;;;;;7396225;19;20192;-88
2023/03/13 03:07:38;;;;;;;0.20;0.20;;;;;;;;;;7397086;19;20216;-88
2023/03/13 03:10:06;;;;;;;0.30;0.30;;;;;;;;;;7401592;19;20251;-88
2023/03/13 03:12:32;;;;;;;0.40;0.40;;;;;;;;;;7405008;19;20221;-87
2023/03/13 03:14:59;;;;;;;0.20;0.20;;;;;;;;;;7405477;19;20199;-88
2023/03/13 03:17:25;;;;;;;0.40;0.40;;;;;;;;;;7403794;19;20188;-89
2023/03/13 03:19:52;;;;;;;0.30;0.30;;;;;;;;;;7403221;19;20563;-89
2023/03/13 03:22:18;;;;;;;0.30;0.30;;;;;;;;;;7402070;19;20216;-88
2023/03/13 03:24:45;;;;;;;0.30;0.30;;;;;;;;;;7401637;19;20195;-88
2023/03/13 03:27:11;;;;;;;0.30;0.30;;;;;;;;;;7401681;19;20192;-89
2023/03/13 03:29:38;;;;;;;0.30;0.30;;;;;;;;;;7402036;19;20191;-89
2023/03/13 03:32:05;;;;;;;0.40;0.40;;;;;;;;;;7400292;19;20192;-87
2023/03/13 03:34:32;;;;;;;0.57;0.57;;;;;;;;;;7400183;19;20283;-87
2023/03/13 03:36:58;;;;;;;0.30;0.30;;;;;;;;;;7401127;19;20217;-88
2023/03/13 03:39:25;;;;;;;0.30;0.30;;;;;;;;;;7400852;19;20209;-88
2023/03/13 03:41:51;;;;;;;18.13;0.77;;;;;;;;;;7400992;19;20217;-89
2023/03/13 03:44:18;;;;;;;0.30;0.30;;;;;;;;;;7399628;19;20195;-89
2023/03/13 03:46:44;;;;;;;0.30;0.30;;;;;;;;;;7400959;19;20697;-88
2023/03/13 03:49:11;;;;;;;0.30;0.30;;;;;;;;;;7399625;19;20751;-90
2023/03/13 03:51:37;;;;;;;0.23;0.23;;;;;;;;;;7400345;19;20192;-89
2023/03/13 03:54:04;;;;;;;0.50;0.50;;;;;;;;;;7400881;19;20200;-88
2023/03/13 03:56:30;;;;;;;0.30;0.30;;;;;;;;;;7405186;19;20233;-87
2023/03/13 03:58:57;;;;;;;0.30;0.30;;;;;;;;;;7404508;19;20185;-89
2023/03/13 04:01:24;;;;;;;0.30;0.30;;;;;;;;;;7402036;19;20196;-87
2023/03/13 04:03:50;;;;;;;0.30;0.30;;;;;;;;;;7403347;19;20196;-89
2023/03/13 04:06:17;;;;;;;0.30;0.30;;;;;;;;;;7403677;19;20681;-88
2023/03/13 04:08:43;;;;;;;0.30;0.30;;;;;;;;;;7404700;19;20214;-87
2023/03/13 04:11:10;;;;;;;0.30;0.30;;;;;;;;;;7404130;19;20196;-87
2023/03/13 04:13:37;;;;;;;0.30;0.30;;;;;;;;;;7405474;19;20244;-88
2023/03/13 04:16:07;;;;;;;0.30;0.30;;;;;;;;;;7400518;19;20217;-88
2023/03/13 04:18:34;;;;;;;0.30;0.30;;;;;;;;;;7400620;19;20189;-87
2023/03/13 04:21:02;;;;;;;0.30;0.30;;;;;;;;;;7399101;19;20208;-88
2023/03/13 04:23:28;;;;;;;0.30;0.30;;;;;;;;;;7398416;19;20894;-87
2023/03/13 04:25:55;;;;;;;0.30;0.30;;;;;;;;;;7402082;19;20576;-89
2023/03/13 04:28:23;;;;;;;0.30;0.30;;;;;;;;;;7407315;19;20215;-88
2023/03/13 04:30:49;;;;;;;0.30;0.30;;;;;;;;;;7413657;19;20192;-90
2023/03/13 04:33:16;;;;;;;0.20;0.20;;;;;;;;;;7420696;19;20192;-89
2023/03/13 04:35:43;;;;;;;0.50;0.50;;;;;;;;;;7416303;19;20189;-88
2023/03/13 04:38:09;;;;;;;0.30;0.30;;;;;;;;;;7403827;19;20188;-88
2023/03/13 04:40:36;;;;;;;0.23;0.23;;;;;;;;;;7403364;19;20562;-87
2023/03/13 04:43:03;;;;;;;0.30;0.30;;;;;;;;;;7403066;19;20216;-87
2023/03/13 07:08:11;;;;;;;0.30;0.30;;;;;;;;;;7391661;19;20153;-90
2023/03/13 07:10:37;;;;;;;0.30;0.30;;;;;;;;;;7386743;19;20216;-88
2023/03/13 07:13:04;;;;;;;0.40;0.40;;;;;;;;;;7386190;19;20208;-90
2023/03/13 07:15:30;;;;;;;0.20;0.20;;;;;;;;;;7387520;19;20220;-89
2023/03/13 07:17:57;;;;;;;0.20;0.20;;;;;;;;;;7387903;19;20736;-89
2023/03/13 07:20:24;;;;;;;0.20;0.20;;;;;;;;;;7388229;19;20212;-91
2023/03/13 07:22:52;;;;;;;0.30;0.30;;;;;;;;;;7391176;19;20185;-89
2023/03/13 07:25:18;;;;;;;0.30;0.30;;;;;;;;;;7389433;19;20216;-89
2023/03/13 07:27:45;;;;;;;0.30;0.30;;;;;;;;;;7389303;19;20192;-87
2023/03/13 07:30:12;;;;;;;0.20;0.20;;;;;;;;;;7389171;19;20241;-89
2023/03/13 07:32:38;;;;;;;0.20;0.20;;;;;;;;;;7393565;19;20192;-87
2023/03/13 07:35:05;;;;;;;0.63;0.63;;;;;;;;;;7391339;19;20188;-88
2023/03/13 07:37:32;;;;;;;0.40;0.40;;;;;;;;;;7392145;19;20201;-87
2023/03/13 07:39:58;;;;;;;0.30;0.30;;;;;;;;;;7392564;19;20184;-87
2023/03/13 07:42:25;;;;;;;0.30;0.30;;;;;;;;;;7404565;19;20202;-88
2023/03/13 07:44:52;;;;;;;0.40;0.40;;;;;;;;;;7402935;19;20196;-90
2023/03/13 07:47:18;;;;;;;0.20;0.20;;;;;;;;;;7398480;19;20192;-91
2023/03/13 07:49:45;;;;;;;0.30;0.30;;;;;;;;;;7391356;19;21062;-87
2023/03/13 07:52:12;;;;;;;0.30;0.30;;;;;;;;;;7396624;19;20192;-88
2023/03/13 07:54:39;;;;;;;0.30;0.30;;;;;;;;;;7388709;19;20196;-86
2023/03/13 07:57:05;;;;;;;0.30;0.30;;;;;;;;;;7396541;19;20224;-87
2023/03/13 07:59:32;;;;;;;0.30;0.30;;;;;;;;;;7399144;19;20192;-88
2023/03/13 08:01:58;;;;;;;0.30;0.30;;;;;;;;;;7400928;19;20199;-89
2023/03/13 08:04:25;;;;;;;0.30;0.30;;;;;;;;;;7396038;19;20721;-89
2023/03/13 08:06:53;;;;;;;0.30;0.30;;;;;;;;;;7396460;19;20568;-88
2023/03/13 08:09:20;;;;;;;2.20;0.50;;;;;;;;;;7397008;19;20244;-89
2023/03/13 08:11:47;;;;;;;0.43;0.43;;;;;;;;;;7398443;19;20709;-88
2023/03/13 08:14:14;;;;;;;0.50;0.50;;;;;;;;;;7400468;19;20196;-86
2023/03/13 08:16:40;;;;;;;0.30;0.30;;;;;;;;;;7408185;19;20193;-89
2023/03/13 08:19:07;;;;;;;1.80;0.60;;;;;;;;;;7425265;19;20188;-90
2023/03/13 08:21:35;;;;;;;0.40;0.40;;;;;;;;;;7425278;19;20205;-94
2023/03/13 08:24:05;;;;;;;0.40;0.40;;;;;;;;;;7422047;19;20228;-91
2023/03/13 08:26:34;;;;;;;0.30;0.30;;;;;;;;;;7426389;19;20192;-91
2023/03/13 08:29:03;;;;;;;0.40;0.40;;;;;;;;;;7427794;19;20189;-90
2023/03/13 08:31:33;;;;;;;0.30;0.30;;;;;;;;;;7425354;19;20206;-92
2023/03/13 08:33:59;;;;;;;0.30;0.30;;;;;;;;;;7428024;19;20208;-90
2023/03/13 08:36:30;;;;;;;0.30;0.30;;;;;;;;;;7410959;19;20188;-86
2023/03/13 08:39:02;;;;;;;0.63;0.63;;;;;;;;;;7401269;19;20215;-91
2023/03/13 08:41:33;;;;;;;0.30;0.30;;;;;;;;;;7400844;19;20212;-90
2023/03/13 08:44:00;;;;;;;0.30;0.30;;;;;;;;;;7404038;19;20213;-90
2023/03/13 08:46:28;;;;;;;0.47;0.40;;;;;;;;;;7405220;19;20196;-92
2023/03/13 08:48:55;;;;;;;0.40;0.40;;;;;;;;;;7426581;19;20195;-91
2023/03/13 08:51:24;;;;;;;0.30;0.30;;;;;;;;;;7423497;19;20196;-91
2023/03/13 08:53:51;;;;;;;0.50;0.50;;;;;;;;;;7419367;19;20181;-91
2023/03/13 08:56:20;;;;;;;0.30;0.30;;;;;;;;;;7413751;19;20221;-90
2023/03/13 08:58:54;;;;;;;4.27;0.50;;;;;;;;;;7423717;19;20188;-92
2023/03/13 09:01:30;;;;;;;0.30;0.30;;;;;;;;;;7416089;19;20188;-92
2023/03/13 09:04:06;;;;;;;0.40;0.40;;;;;;;;;;7404733;19;20196;-93
2023/03/13 09:07:21;;;;;;;0.40;0.40;;;;;;;;;;7400914;19;20232;-92
2023/03/13 09:09:58;;;;;;;0.30;0.30;;;;;;;;;;7425078;19;20176;-92
2023/03/13 09:12:31;;;;;;;0.30;0.30;;;;;;;;;;7424346;19;20197;-92
2023/03/13 09:17:48;;;;;;;0.30;0.30;;;;;;;;;;7396764;19;20522;-91
2023/03/13 09:20:15;;;;;;;0.30;0.30;;;;;;;;;;7393319;19;20142;-91
2023/03/13 09:22:50;;;;;;;0.40;0.40;;;;;;;;;;7394913;19;20141;-88
2023/03/13 19:16:29;;;;;;;0.37;0.37;;;;;;;;;;7390505;19;20224;-93
2023/03/13 19:18:56;;;;;;;0.47;0.47;;;;;;;;;;7388444;19;20504;-91
2023/03/13 19:21:25;;;;;;;0.50;0.50;;;;;;;;;;7389359;19;20708;-90
2023/03/13 19:23:52;;;;;;;0.60;0.60;;;;;;;;;;7392051;19;20129;-89
2023/03/13 19:26:34;;;;;;;0.30;0.30;;;;;;;;;;7393381;19;20148;-90
2023/03/13 19:29:01;;;;;;;0.30;0.30;;;;;;;;;;7397283;19;20153;-87
2023/03/13 19:31:27;;;;;;;0.57;0.57;;;;;;;;;;7398454;19;20118;-88
2023/03/13 19:33:54;;;;;;;0.30;0.30;;;;;;;;;;7399310;19;20121;-88
2023/03/13 19:36:22;;;;;;;0.40;0.40;;;;;;;;;;7397878;19;20152;-88
2023/03/13 19:38:55;;;;;;;0.50;0.50;;;;;;;;;;7399269;19;20137;-88
2023/03/13 19:41:21;;;;;;;0.80;0.80;;;;;;;;;;7399627;19;20145;-89
2023/03/13 19:43:48;;;;;;;0.40;0.40;;;;;;;;;;7399050;19;20726;-89
2023/03/13 19:46:20;;;;;;;1.03;0.73;;;;;;;;;;7398265;19;20181;-88
2023/03/13 19:48:47;;;;;;;0.50;0.50;;;;;;;;;;7408546;19;20633;-90
2023/03/13 19:51:14;;;;;;;0.50;0.50;;;;;;;;;;7422715;19;20137;-90
2023/03/13 19:53:41;;;;;;;0.40;0.40;;;;;;;;;;7429022;19;20129;-90
2023/03/13 19:56:24;;;;;;;0.43;0.43;;;;;;;;;;7428294;19;20144;-91
2023/03/13 19:58:55;;;;;;;0.40;0.40;;;;;;;;;;7429181;19;20140;-91
2023/03/13 20:01:22;;;;;;;0.40;0.40;;;;;;;;;;7428811;19;20149;-91
2023/03/13 20:03:49;;;;;;;0.73;0.73;;;;;;;;;;7429162;19;20129;-92
2023/03/13 20:06:20;;;;;;;1.03;0.67;;;;;;;;;;7428936;19;20463;-91
2023/03/13 20:08:48;;;;;;;0.40;0.40;;;;;;;;;;7429954;19;20125;-91
2023/03/13 20:11:15;;;;;;;0.60;0.60;;;;;;;;;;7416283;19;20129;-88
2023/03/13 20:13:41;;;;;;;0.40;0.40;;;;;;;;;;7401801;19;20655;-87
2023/03/13 20:16:10;;;;;;;0.40;0.40;;;;;;;;;;7395754;19;20161;-88
2023/03/13 20:18:42;;;;;;;0.30;0.30;;;;;;;;;;7405554;19;20181;-87
2023/03/13 20:21:09;;;;;;;0.43;0.43;;;;;;;;;;7423072;19;20177;-89
2023/03/13 20:23:35;;;;;;;0.50;0.50;;;;;;;;;;7415076;19;20146;-88
2023/03/13 20:26:09;;;;;;;0.30;0.30;;;;;;;;;;7408612;19;20165;-87
2023/03/13 20:28:38;;;;;;;0.30;0.30;;;;;;;;;;7409406;19;20133;-87
2023/03/13 20:31:06;;;;;;;0.30;0.30;;;;;;;;;;7407232;19;20121;-87
2023/03/13 20:33:34;;;;;;;0.30;0.30;;;;;;;;;;7412586;19;20125;-88
2023/03/13 20:36:06;;;;;;;0.30;0.30;;;;;;;;;;7417641;19;20137;-88
2023/03/13 20:38:33;;;;;;;0.30;0.30;;;;;;;;;;7405463;19;20121;-88
2023/03/13 20:41:00;;;;;;;0.37;0.37;;;;;;;;;;7395913;19;20136;-88
2023/03/13 20:43:27;;;;;;;0.50;0.50;;;;;;;;;;7394034;19;20129;-88
2023/03/13 20:45:54;;;;;;;0.33;0.33;;;;;;;;;;7393900;19;20145;-87
2023/03/13 20:48:21;;;;;;;0.33;0.33;;;;;;;;;;7393033;19;20200;-89
2023/03/13 20:50:52;;;;;;;0.50;0.47;;;;;;;;;;7392961;19;20137;-88
2023/03/13 20:53:19;;;;;;;0.53;0.53;;;;;;;;;;7392472;19;20177;-88
2023/03/13 20:55:47;;;;;;;0.43;0.43;;;;;;;;;;7393109;19;20156;-87
2023/03/13 20:58:14;;;;;;;0.33;0.33;;;;;;;;;;7394088;19;20133;-88
2023/03/13 21:00:42;;;;;;;0.30;0.30;;;;;;;;;;7396367;19;20157;-88
2023/03/13 21:03:08;;;;;;;0.30;0.30;;;;;;;;;;7392761;19;20161;-87
2023/03/13 21:05:39;;;;;;;1.23;0.50;;;;;;;;;;7395788;19;20140;-88
2023/03/13 21:08:05;;;;;;;0.67;0.60;;;;;;;;;;7397108;19;20143;-88
2023/03/13 21:10:40;;;;;;;1.30;1.20;;;;;;;;;;7394886;19;20133;-87
2023/03/13 21:13:08;;;;;;;0.47;0.47;;;;;;;;;;7394471;19;20157;-88
2023/03/13 21:15:35;;;;;;;0.30;0.30;;;;;;;;;;7389512;19;20193;-87
2023/03/13 21:18:02;;;;;;;0.30;0.30;;;;;;;;;;7394064;19;20133;-88
2023/03/13 21:20:29;;;;;;;0.30;0.30;;;;;;;;;;7391652;19;20133;-88
2023/03/13 21:22:56;;;;;;;0.30;0.30;;;;;;;;;;7393044;19;20161;-87
2023/03/13 21:25:23;;;;;;;0.30;0.30;;;;;;;;;;7394243;19;20132;-88
2023/03/13 21:27:49;;;;;;;0.70;0.70;;;;;;;;;;7393670;19;20239;-88
2023/03/13 21:30:19;;;;;;;0.30;0.30;;;;;;;;;;7391736;19;20477;-87
2023/03/13 21:32:46;;;;;;;0.53;0.53;;;;;;;;;;7393391;19;20158;-88
2023/03/13 21:35:14;;;;;;;0.30;0.30;;;;;;;;;;7393527;19;20125;-87
2023/03/13 21:37:41;;;;;;;0.83;0.70;;;;;;;;;;7393820;19;20125;-88
2023/03/13 21:40:09;;;;;;;0.30;0.30;;;;;;;;;;7394227;19;20452;-88
2023/03/13 21:42:36;;;;;;;0.30;0.30;;;;;;;;;;7388250;19;20153;-88
2023/03/13 21:45:04;;;;;;;0.30;0.30;;;;;;;;;;7393090;19;20629;-88
2023/03/13 21:47:35;;;;;;;0.20;0.20;;;;;;;;;;7389472;19;20642;-87
2023/03/13 21:50:04;;;;;;;0.30;0.30;;;;;;;;;;7392858;19;20133;-88
2023/03/13 21:52:31;;;;;;;0.40;0.40;;;;;;;;;;7392558;19;20121;-87
2023/03/13 21:55:02;;;;;;;0.37;0.37;;;;;;;;;;7393502;19;20145;-87
2023/03/13 21:57:28;;;;;;;0.30;0.30;;;;;;;;;;7392913;19;20141;-88
2023/03/13 21:59:55;;;;;;;0.50;0.50;;;;;;;;;;7392246;19;20117;-88
2023/03/13 22:02:21;;;;;;;0.40;0.40;;;;;;;;;;7393981;19;20142;-87
2023/03/13 22:04:48;;;;;;;0.30;0.30;;;;;;;;;;7394911;19;20599;-88
2023/03/13 22:07:14;;;;;;;0.70;0.37;;;;;;;;;;7393564;19;20152;-87
2023/03/13 22:09:41;;;;;;;0.40;0.40;;;;;;;;;;7393166;19;20125;-89
2023/03/13 22:12:07;;;;;;;0.20;0.20;;;;;;;;;;7395393;19;20470;-88
2023/03/13 22:14:34;;;;;;;0.30;0.30;;;;;;;;;;7391662;19;20150;-88
2023/03/13 22:17:00;;;;;;;0.30;0.30;;;;;;;;;;7387501;19;20169;-89
2023/03/13 22:19:27;;;;;;;0.30;0.30;;;;;;;;;;7393853;19;20173;-90
2023/03/13 22:21:53;;;;;;;0.30;0.30;;;;;;;;;;7393345;19;20133;-89
2023/03/13 22:24:20;;;;;;;0.47;0.40;;;;;;;;;;7396207;19;20129;-88
2023/03/13 22:26:46;;;;;;;0.40;0.40;;;;;;;;;;7392620;19;20152;-90
2023/03/13 22:29:13;;;;;;;0.43;0.43;;;;;;;;;;7394366;19;20121;-88
2023/03/13 22:31:39;;;;;;;0.30;0.30;;;;;;;;;;7392991;19;20149;-88
2023/03/13 22:34:06;;;;;;;0.30;0.30;;;;;;;;;;7394363;19;20125;-90
2023/03/13 22:36:32;;;;;;;0.30;0.30;;;;;;;;;;7389731;19;20181;-89
2023/03/13 22:38:59;;;;;;;0.60;0.60;;;;;;;;;;7389798;19;20161;-89
2023/03/13 22:41:25;;;;;;;0.73;0.67;;;;;;;;;;7387431;19;20113;-89
2023/03/13 22:43:52;;;;;;;0.60;0.60;;;;;;;;;;7389817;19;20129;-88
2023/03/13 22:46:18;;;;;;;0.20;0.20;;;;;;;;;;7391670;19;20164;-89
2023/03/13 22:48:45;;;;;;;0.37;0.37;;;;;;;;;;7390788;19;20502;-88
2023/03/13 22:51:12;;;;;;;0.30;0.30;;;;;;;;;;7390951;19;20143;-88
2023/03/13 22:53:40;;;;;;;0.30;0.30;;;;;;;;;;7391414;19;20153;-87
2023/03/13 22:56:11;;;;;;;0.40;0.40;;;;;;;;;;7391582;19;20153;-88
2023/03/13 22:58:38;;;;;;;0.20;0.20;;;;;;;;;;7391959;19;20138;-89
2023/03/13 23:01:13;;;;;;;0.30;0.30;;;;;;;;;;7388377;19;20129;-89
2023/03/13 23:03:41;;;;;;;0.40;0.40;;;;;;;;;;7389646;19;20135;-90
2023/03/13 23:06:11;;;;;;;0.20;0.20;;;;;;;;;;7386982;19;20161;-89
2023/03/13 23:08:38;;;;;;;0.30;0.30;;;;;;;;;;7390072;19;20459;-86
2023/03/13 23:11:04;;;;;;;0.30;0.30;;;;;;;;;;7392198;19;20137;-88
2023/03/13 23:13:31;;;;;;;0.20;0.20;;;;;;;;;;7391330;19;20157;-86
2023/03/13 23:15:58;;;;;;;0.30;0.30;;;;;;;;;;7393034;19;20141;-87
2023/03/13 23:18:26;;;;;;;0.40;0.40;;;;;;;;;;7393370;19;20136;-86
2023/03/13 23:20:52;;;;;;;0.30;0.30;;;;;;;;;;7393646;19;20626;-89
2023/03/13 23:23:19;;;;;;;0.30;0.30;;;;;;;;;;7392832;19;20134;-87
2023/03/13 23:25:46;;;;;;;0.20;0.20;;;;;;;;;;7392607;19;20181;-88
2023/03/13 23:28:12;;;;;;;0.20;0.20;;;;;;;;;;7399434;19;20146;-88
2023/03/13 23:30:39;;;;;;;0.73;0.63;;;;;;;;;;7402065;19;20137;-89
2023/03/13 23:33:05;;;;;;;0.23;0.23;;;;;;;;;;7401361;19;20122;-87
2023/03/13 23:35:35;;;;;;;0.20;0.20;;;;;;;;;;7399200;19;20155;-89
2023/03/13 23:38:02;;;;;;;0.30;0.30;;;;;;;;;;7401370;19;20609;-86
2023/03/13 23:40:29;;;;;;;0.30;0.30;;;;;;;;;;7401170;19;20133;-89
2023/03/13 23:42:55;;;;;;;0.23;0.23;;;;;;;;;;7395582;19;20138;-89
2023/03/13 23:45:22;;;;;;;0.30;0.30;;;;;;;;;;7401414;19;20165;-89
2023/03/13 23:47:51;;;;;;;0.27;0.27;;;;;;;;;;7400406;19;20133;-90
2023/03/13 23:50:17;;;;;;;0.20;0.20;;;;;;;;;;7400516;19;20618;-92
2023/03/13 23:52:44;;;;;;;0.23;0.23;;;;;;;;;;7399270;19;20519;-90
2023/03/13 23:55:10;;;;;;;0.20;0.20;;;;;;;;;;7399809;19;20637;-89
2023/03/13 23:57:37;;;;;;;0.20;0.20;;;;;;;;;;7398822;19;20132;-87
